Time;durP1;ratioP1;P1;durP2;ratioP2;P2;SDS_P1;SDS_P2;PMS_P1;PMS_P2;Temp;Humidity;BMP_temperature;BMP_pressure;BME280_temperature;BME280_humidity;BME280_pressure;Samples;Min_cycle;Max_cycle;Signal;HPM_P1;HPM_P2
2022/10/18 00:01:56;;;;;;;21.20;11.83;;;7.40;99.90;;;;;;4200317;28;20456;-62
2022/10/18 00:03:57;;;;;;;18.03;11.10;;;7.30;99.90;;;;;;4198732;28;20094;-63
2022/10/18 00:05:59;;;;;;;20.77;11.67;;;7.20;99.90;;;;;;4182103;28;20469;-62
2022/10/18 00:08:00;;;;;;;21.47;12.60;;;7.10;99.90;;;;;;4198537;28;20036;-62
2022/10/18 00:10:03;;;;;;;20.30;11.87;;;7.10;99.90;;;;;;4210153;28;20020;-63
2022/10/18 00:12:04;;;;;;;26.97;12.90;;;7.00;99.90;;;;;;4207043;28;20056;-63
2022/10/18 00:14:06;;;;;;;23.00;13.60;;;7.00;99.90;;;;;;4199561;28;20090;-62
2022/10/18 00:16:11;;;;;;;28.20;13.73;;;6.90;99.90;;;;;;4198957;28;20025;-63
2022/10/18 00:18:12;;;;;;;24.20;12.33;;;6.90;99.90;;;;;;4200023;28;20032;-64
2022/10/18 00:20:13;;;;;;;25.73;14.27;;;6.90;99.90;;;;;;4198623;28;20411;-62
2022/10/18 00:22:16;;;;;;;26.50;14.47;;;6.90;99.90;;;;;;4199669;28;20058;-62
2022/10/18 00:24:17;;;;;;;28.67;14.83;;;6.90;99.90;;;;;;4199472;28;20070;-62
2022/10/18 00:26:22;;;;;;;23.60;13.23;;;6.90;99.90;;;;;;4199221;28;20052;-62
2022/10/18 00:28:23;;;;;;;22.07;13.17;;;6.90;99.90;;;;;;4199359;28;20530;-62
2022/10/18 00:30:25;;;;;;;23.53;13.23;;;7.00;99.90;;;;;;4198664;28;20086;-63
2022/10/18 00:32:26;;;;;;;20.33;13.37;;;7.00;99.90;;;;;;4199662;28;20032;-62
2022/10/18 00:34:27;;;;;;;28.07;13.83;;;7.00;99.90;;;;;;4198918;28;20032;-62
2022/10/18 00:36:31;;;;;;;22.33;12.67;;;7.00;99.90;;;;;;4213319;28;20121;-62
2022/10/18 00:38:32;;;;;;;21.07;13.17;;;7.00;99.90;;;;;;4214632;28;20500;-62
2022/10/18 00:40:33;;;;;;;19.53;12.27;;;7.10;99.90;;;;;;4197919;28;20044;-63
2022/10/18 00:42:36;;;;;;;21.17;12.93;;;7.00;99.90;;;;;;4214925;28;20476;-62
2022/10/18 00:44:37;;;;;;;21.43;12.70;;;7.00;99.90;;;;;;4216628;28;20032;-63
2022/10/18 00:46:42;;;;;;;23.47;12.50;;;7.00;99.90;;;;;;4215096;28;20090;-63
2022/10/18 00:48:43;;;;;;;23.43;13.43;;;7.00;99.90;;;;;;4216082;28;20204;-62
2022/10/18 00:50:45;;;;;;;23.40;13.90;;;6.90;99.90;;;;;;4215500;28;20024;-62
2022/10/18 00:52:52;;;;;;;28.57;13.70;;;6.90;99.90;;;;;;4215345;28;20052;-63
2022/10/18 00:54:55;;;;;;;23.37;13.40;;;6.90;99.90;;;;;;4211956;28;20554;-63
2022/10/18 00:56:57;;;;;;;23.43;13.10;;;6.90;99.90;;;;;;4213364;28;20085;-62
2022/10/18 00:58:58;;;;;;;23.97;14.00;;;6.80;99.90;;;;;;4195808;28;20040;-62
2022/10/18 01:00:59;;;;;;;27.40;13.97;;;6.80;99.90;;;;;;4196134;28;20097;-63
2022/10/18 01:03:01;;;;;;;23.37;13.70;;;6.80;99.90;;;;;;4194543;28;20048;-62
2022/10/18 01:05:03;;;;;;;24.43;14.00;;;6.90;99.90;;;;;;4179670;28;20033;-63
2022/10/18 01:07:04;;;;;;;25.03;13.63;;;6.90;99.90;;;;;;4180312;28;20067;-63
2022/10/18 01:09:26;;;;;;;24.03;13.40;;;6.90;99.90;;;;;;4179368;28;20029;-61
2022/10/18 01:11:27;;;;;;;26.93;14.00;;;6.90;99.90;;;;;;4180063;28;20083;-62
2022/10/18 01:13:45;;;;;;;25.30;13.67;;;6.90;99.90;;;;;;4179183;28;20071;-61
2022/10/18 01:16:12;;;;;;;24.80;13.50;;;6.80;99.90;;;;;;4180081;28;20029;-62
2022/10/18 01:18:17;;;;;;;30.47;14.27;;;6.80;99.90;;;;;;4179722;28;20029;-65
2022/10/18 01:20:44;;;;;;;28.73;13.37;;;6.80;99.90;;;;;;4179861;28;20054;-63
2022/10/18 01:23:02;;;;;;;26.13;13.73;;;6.80;99.90;;;;;;4179453;28;20051;-63
2022/10/18 01:25:09;;;;;;;24.50;14.37;;;6.80;99.90;;;;;;4179173;28;20044;-63
2022/10/18 01:27:28;;;;;;;24.53;13.73;;;6.80;99.90;;;;;;4179625;28;20067;-64
2022/10/18 01:29:58;;;;;;;20.17;12.67;;;6.70;99.90;;;;;;4179050;28;20037;-63
2022/10/18 01:32:03;;;;;;;21.57;13.63;;;6.70;99.90;;;;;;4177863;28;20041;-63
2022/10/18 01:34:08;;;;;;;22.30;13.27;;;6.60;99.90;;;;;;4195546;28;20025;-62
2022/10/18 01:36:14;;;;;;;29.50;13.40;;;6.60;99.90;;;;;;4195007;28;20033;-63
2022/10/18 01:38:18;;;;;;;25.07;14.03;;;6.60;99.90;;;;;;4195119;28;20083;-63
2022/10/18 01:40:22;;;;;;;25.53;12.53;;;6.60;99.90;;;;;;4196551;28;20075;-64
2022/10/18 01:42:24;;;;;;;26.90;13.53;;;6.60;99.90;;;;;;4193546;28;20113;-62
2022/10/18 01:44:28;;;;;;;22.90;13.03;;;6.70;99.90;;;;;;4195705;28;20102;-63
2022/10/18 01:46:29;;;;;;;22.93;13.13;;;6.60;99.90;;;;;;4185278;28;20074;-62
2022/10/18 01:48:32;;;;;;;22.23;12.57;;;6.60;99.90;;;;;;4179268;28;20424;-62
2022/10/18 01:50:34;;;;;;;24.13;12.00;;;6.60;99.90;;;;;;4178729;28;20293;-62
2022/10/18 01:52:45;;;;;;;28.00;13.67;;;6.60;99.90;;;;;;4187087;28;20070;-62
2022/10/18 01:54:47;;;;;;;20.50;12.63;;;6.60;99.90;;;;;;4196295;28;20081;-63
2022/10/18 01:57:00;;;;;;;23.67;12.37;;;6.60;99.90;;;;;;4195464;28;20033;-63
2022/10/18 01:59:13;;;;;;;22.63;13.73;;;6.50;99.90;;;;;;4195734;28;20045;-63
2022/10/18 02:01:51;;;;;;;24.03;14.13;;;6.50;99.90;;;;;;4194937;28;20028;-63
2022/10/18 02:03:56;;;;;;;27.40;13.67;;;6.40;99.90;;;;;;4195282;28;20032;-63
2022/10/18 02:06:07;;;;;;;23.60;14.00;;;6.40;99.90;;;;;;4194651;28;20098;-63
2022/10/18 02:08:17;;;;;;;27.83;13.30;;;6.40;99.90;;;;;;4194570;28;20083;-62
2022/10/18 02:10:26;;;;;;;22.73;14.93;;;6.40;99.90;;;;;;4181257;28;20040;-63
2022/10/18 02:12:31;;;;;;;27.80;14.07;;;6.40;99.90;;;;;;4178207;28;20052;-62
2022/10/18 02:14:33;;;;;;;30.33;14.37;;;6.30;99.90;;;;;;4178963;28;20051;-64
2022/10/18 02:16:53;;;;;;;27.73;14.03;;;6.30;99.90;;;;;;4178488;28;20033;-62
2022/10/18 02:18:59;;;;;;;29.60;15.20;;;6.30;99.90;;;;;;4177014;28;20463;-62
2022/10/18 02:21:02;;;;;;;25.17;14.77;;;6.30;99.90;;;;;;4178587;28;20763;-62
2022/10/18 02:23:07;;;;;;;28.83;14.60;;;6.30;99.90;;;;;;4178051;28;20114;-63
2022/10/18 02:25:15;;;;;;;24.40;13.70;;;6.30;99.90;;;;;;4179472;28;20432;-62
2022/10/18 02:27:17;;;;;;;26.03;14.57;;;6.30;99.90;;;;;;4177790;28;20032;-63
2022/10/18 02:29:18;;;;;;;32.00;14.83;;;6.30;99.90;;;;;;4178758;28;20501;-63
2022/10/18 02:31:19;;;;;;;23.17;13.97;;;6.30;99.90;;;;;;4177810;28;20036;-62
2022/10/18 02:33:52;;;;;;;27.83;14.77;;;6.30;99.90;;;;;;4178842;28;20049;-62
2022/10/18 02:36:03;;;;;;;24.83;14.30;;;6.30;99.90;;;;;;4147809;28;20542;-62
2022/10/18 02:38:06;;;;;;;29.53;14.13;;;6.30;99.90;;;;;;4195105;28;20012;-62
2022/10/18 02:40:09;;;;;;;33.07;15.17;;;6.20;99.90;;;;;;4194544;28;20380;-60
2022/10/18 02:42:12;;;;;;;24.43;13.97;;;6.20;99.90;;;;;;4195213;28;20435;-62
2022/10/18 02:44:14;;;;;;;24.73;14.47;;;6.20;99.90;;;;;;4191983;28;20542;-62
2022/10/18 02:46:15;;;;;;;26.80;14.30;;;6.20;99.90;;;;;;4185801;28;20081;-61
2022/10/18 02:48:16;;;;;;;23.83;13.93;;;6.20;99.90;;;;;;4194034;28;20032;-62
2022/10/18 02:50:18;;;;;;;23.80;12.53;;;6.10;99.90;;;;;;4195129;28;20032;-61
2022/10/18 02:52:19;;;;;;;22.60;12.77;;;6.10;99.90;;;;;;4194144;28;20040;-62
2022/10/18 02:54:20;;;;;;;20.47;13.17;;;6.10;99.90;;;;;;4195329;28;20032;-63
2022/10/18 02:56:21;;;;;;;24.80;13.17;;;6.10;99.90;;;;;;4194504;28;20415;-63
2022/10/18 02:58:22;;;;;;;26.37;13.07;;;6.10;99.90;;;;;;4206604;28;20044;-62
2022/10/18 03:00:23;;;;;;;23.77;12.93;;;6.00;99.90;;;;;;4210054;28;20081;-63
2022/10/18 03:02:25;;;;;;;25.33;12.90;;;6.00;99.90;;;;;;4211768;28;20093;-63
2022/10/18 03:04:26;;;;;;;22.73;13.07;;;6.00;99.90;;;;;;4210975;28;20480;-63
2022/10/18 03:06:27;;;;;;;22.93;12.60;;;6.00;99.90;;;;;;4211404;28;20028;-62
2022/10/18 03:08:28;;;;;;;22.97;12.83;;;6.00;99.90;;;;;;4195098;28;20021;-63
2022/10/18 03:10:30;;;;;;;22.90;13.60;;;6.00;99.90;;;;;;4194132;28;20447;-63
2022/10/18 03:12:31;;;;;;;23.77;13.60;;;6.10;99.90;;;;;;4194680;28;20102;-63
2022/10/18 03:14:32;;;;;;;25.57;12.80;;;6.10;99.90;;;;;;4193991;28;20073;-62
2022/10/18 03:16:33;;;;;;;22.90;13.97;;;6.00;99.90;;;;;;4194243;28;20086;-62
2022/10/18 03:18:34;;;;;;;21.23;12.60;;;6.00;99.90;;;;;;4193310;28;20074;-63
2022/10/18 03:20:35;;;;;;;26.80;14.07;;;6.00;99.90;;;;;;4194096;28;20094;-62
2022/10/18 03:22:36;;;;;;;25.77;12.60;;;6.00;99.90;;;;;;4193868;28;20025;-62
2022/10/18 03:24:37;;;;;;;27.60;14.07;;;5.90;99.90;;;;;;4195248;28;20079;-62
2022/10/18 03:26:38;;;;;;;28.37;13.80;;;5.80;99.90;;;;;;4193295;28;20041;-62
2022/10/18 03:28:40;;;;;;;30.77;16.23;;;5.90;99.90;;;;;;4193922;28;20126;-62
2022/10/18 03:30:41;;;;;;;27.53;16.47;;;5.90;99.90;;;;;;4202382;28;20085;-62
2022/10/18 03:32:42;;;;;;;36.47;17.40;;;5.80;99.90;;;;;;4210383;28;20044;-60
2022/10/18 03:34:43;;;;;;;28.70;16.23;;;5.80;99.90;;;;;;4210088;28;20044;-62
2022/10/18 03:36:44;;;;;;;29.83;15.43;;;5.80;99.90;;;;;;4210916;28;20361;-64
2022/10/18 03:38:45;;;;;;;25.03;13.77;;;5.70;99.90;;;;;;4209871;28;20097;-62
2022/10/18 03:40:46;;;;;;;23.50;13.43;;;5.70;99.90;;;;;;4210535;28;20345;-63
2022/10/18 03:42:48;;;;;;;28.23;13.67;;;5.70;99.90;;;;;;4211007;28;20032;-63
2022/10/18 03:44:49;;;;;;;21.80;14.03;;;5.70;99.90;;;;;;4209592;28;20465;-63
2022/10/18 03:46:50;;;;;;;34.93;20.07;;;5.60;99.90;;;;;;4211431;28;20544;-62
2022/10/18 03:48:51;;;;;;;30.07;16.20;;;5.60;99.90;;;;;;4210320;28;20073;-63
2022/10/18 03:50:52;;;;;;;27.07;13.43;;;5.50;99.90;;;;;;4211359;28;20024;-62
2022/10/18 03:52:54;;;;;;;22.33;13.87;;;5.40;99.90;;;;;;4209928;28;20143;-63
2022/10/18 03:54:55;;;;;;;22.83;13.53;;;5.40;99.90;;;;;;4204869;28;20081;-63
2022/10/18 03:56:56;;;;;;;23.93;14.37;;;5.40;99.90;;;;;;4208248;28;20089;-63
2022/10/18 03:58:57;;;;;;;26.40;13.97;;;5.50;99.90;;;;;;4210403;28;20097;-62
2022/10/18 04:00:59;;;;;;;23.70;14.67;;;5.40;99.90;;;;;;4200631;28;20053;-63
2022/10/18 04:03:00;;;;;;;21.97;13.27;;;5.40;99.90;;;;;;4193450;28;20798;-62
2022/10/18 04:05:01;;;;;;;23.00;13.90;;;5.40;99.90;;;;;;4193003;28;20044;-62
2022/10/18 04:07:02;;;;;;;21.43;13.43;;;5.40;99.90;;;;;;4197288;28;20054;-62
2022/10/18 04:09:03;;;;;;;14.60;11.10;;;5.30;99.90;;;;;;4210385;28;20430;-63
2022/10/18 04:11:08;;;;;;;20.53;12.83;;;5.20;99.90;;;;;;4208535;28;20040;-63
2022/10/18 04:13:09;;;;;;;16.63;12.27;;;5.10;99.90;;;;;;4193319;28;20080;-63
2022/10/18 04:15:11;;;;;;;18.53;12.90;;;5.10;99.90;;;;;;4175599;28;20056;-62
2022/10/18 04:17:12;;;;;;;18.80;12.90;;;5.00;99.90;;;;;;4209824;28;20044;-62
2022/10/18 04:19:13;;;;;;;22.00;13.17;;;5.00;99.90;;;;;;4208996;28;20028;-62
2022/10/18 04:21:14;;;;;;;28.53;15.30;;;4.90;99.90;;;;;;4209938;28;20036;-62
2022/10/18 04:23:15;;;;;;;23.47;14.83;;;4.90;99.90;;;;;;4209625;28;20077;-62
2022/10/18 04:25:17;;;;;;;29.63;15.57;;;4.80;99.90;;;;;;4210743;28;20070;-61
2022/10/18 04:27:20;;;;;;;31.73;17.10;;;4.70;99.90;;;;;;4209570;28;20499;-62
2022/10/18 04:29:21;;;;;;;34.40;17.17;;;4.70;99.90;;;;;;4210990;28;20517;-61
2022/10/18 04:31:22;;;;;;;29.97;17.30;;;4.70;99.90;;;;;;4209506;28;20427;-63
2022/10/18 04:33:23;;;;;;;39.10;19.67;;;4.70;99.90;;;;;;4196809;28;20149;-62
2022/10/18 04:35:26;;;;;;;34.80;20.53;;;4.70;99.90;;;;;;4206455;28;20093;-62
2022/10/18 04:37:27;;;;;;;36.20;19.50;;;4.70;99.90;;;;;;4208792;28;20431;-62
2022/10/18 04:39:28;;;;;;;34.23;17.10;;;4.70;99.90;;;;;;4193654;28;20016;-61
2022/10/18 04:41:30;;;;;;;35.27;17.60;;;4.70;99.90;;;;;;4196472;28;20102;-62
2022/10/18 04:43:31;;;;;;;33.77;18.33;;;4.80;99.90;;;;;;4196470;28;20094;-62
2022/10/18 04:45:32;;;;;;;30.77;17.17;;;4.70;99.90;;;;;;4194883;28;20040;-61
2022/10/18 04:47:33;;;;;;;34.37;17.50;;;4.70;99.90;;;;;;4199399;28;20037;-62
2022/10/18 04:49:34;;;;;;;35.10;17.30;;;4.70;99.90;;;;;;4195031;28;20033;-62
2022/10/18 04:51:35;;;;;;;33.77;17.60;;;4.70;99.90;;;;;;4184786;28;20074;-62
2022/10/18 04:53:37;;;;;;;34.00;17.03;;;4.70;99.90;;;;;;4194342;28;20094;-61
2022/10/18 04:55:38;;;;;;;25.67;16.20;;;4.70;99.90;;;;;;4195872;28;20035;-61
2022/10/18 04:57:39;;;;;;;29.93;15.77;;;4.70;99.90;;;;;;4195750;28;20491;-61
2022/10/18 04:59:40;;;;;;;27.20;15.37;;;4.80;99.90;;;;;;4178583;28;20044;-62
2022/10/18 05:01:41;;;;;;;28.43;15.93;;;4.80;99.90;;;;;;4196158;28;20553;-61
2022/10/18 05:03:42;;;;;;;27.67;16.07;;;4.90;99.90;;;;;;4195878;28;20040;-62
2022/10/18 05:05:44;;;;;;;27.37;15.07;;;5.00;99.90;;;;;;4177231;28;20029;-64
2022/10/18 05:07:46;;;;;;;26.50;14.90;;;5.10;99.90;;;;;;4196438;28;20021;-63
2022/10/18 05:09:47;;;;;;;26.20;14.47;;;5.20;99.90;;;;;;4195837;28;20054;-61
2022/10/18 05:11:48;;;;;;;23.17;14.23;;;5.40;99.90;;;;;;4196172;28;20435;-62
2022/10/18 05:13:49;;;;;;;23.13;14.20;;;5.60;99.90;;;;;;4195994;28;20052;-61
2022/10/18 05:15:50;;;;;;;27.43;13.80;;;5.80;99.90;;;;;;4195510;28;20044;-62
2022/10/18 05:17:51;;;;;;;30.07;14.43;;;6.00;99.90;;;;;;4196471;28;20032;-61
2022/10/18 05:19:53;;;;;;;21.33;13.03;;;6.20;99.90;;;;;;4195473;28;20079;-61
2022/10/18 05:21:54;;;;;;;20.63;12.17;;;6.40;99.90;;;;;;4196549;28;20078;-61
2022/10/18 05:23:55;;;;;;;19.13;12.03;;;6.50;99.90;;;;;;4176648;28;20489;-60
2022/10/18 05:26:01;;;;;;;36.73;13.53;;;6.80;99.90;;;;;;4195862;28;20492;-61
2022/10/18 05:28:02;;;;;;;32.80;12.83;;;6.90;99.90;;;;;;4194012;28;20086;-62
2022/10/18 05:30:03;;;;;;;35.93;13.57;;;6.90;99.90;;;;;;4195913;28;20037;-63
2022/10/18 05:32:05;;;;;;;27.37;14.03;;;7.00;99.90;;;;;;4194610;28;20714;-62
2022/10/18 05:34:06;;;;;;;29.43;13.83;;;7.30;99.90;;;;;;4196399;28;20063;-62
2022/10/18 05:36:07;;;;;;;28.37;13.90;;;7.70;99.90;;;;;;4195197;28;20490;-61
2022/10/18 05:38:08;;;;;;;27.87;14.23;;;8.10;99.90;;;;;;4196047;28;20538;-62
2022/10/18 05:40:10;;;;;;;39.37;16.53;;;8.30;99.90;;;;;;4194518;28;20032;-62
2022/10/18 05:42:11;;;;;;;28.60;15.37;;;8.40;99.90;;;;;;4194712;28;20078;-62
2022/10/18 05:44:12;;;;;;;31.60;15.30;;;8.50;99.90;;;;;;4195534;28;20021;-61
2022/10/18 05:46:13;;;;;;;36.77;16.07;;;8.70;99.90;;;;;;4195331;28;20419;-62
2022/10/18 05:48:15;;;;;;;30.23;15.57;;;8.80;99.90;;;;;;4195885;28;20604;-62
2022/10/18 05:50:16;;;;;;;30.53;15.37;;;9.00;99.90;;;;;;4193999;28;20040;-63
2022/10/18 05:52:17;;;;;;;29.07;15.13;;;9.10;99.90;;;;;;4195881;28;20082;-62
2022/10/18 05:54:19;;;;;;;32.97;17.07;;;9.20;99.90;;;;;;4194875;28;20094;-62
2022/10/18 05:56:21;;;;;;;31.87;15.23;;;9.30;99.90;;;;;;4195329;28;20074;-62
2022/10/18 05:58:22;;;;;;;33.57;16.03;;;9.70;99.90;;;;;;4194563;28;20078;-63
2022/10/18 06:00:23;;;;;;;28.73;16.50;;;10.20;99.90;;;;;;4195351;28;20044;-62
2022/10/18 06:02:24;;;;;;;29.90;15.67;;;10.50;99.90;;;;;;4194866;28;20067;-63
2022/10/18 06:04:25;;;;;;;32.67;15.30;;;10.50;99.90;;;;;;4178232;28;20087;-62
2022/10/18 06:06:26;;;;;;;26.40;15.13;;;10.50;99.90;;;;;;4194636;28;20476;-61
2022/10/18 06:08:28;;;;;;;28.50;13.83;;;10.50;99.90;;;;;;4194931;28;20032;-62
2022/10/18 06:10:29;;;;;;;24.13;14.60;;;10.90;99.90;;;;;;4194072;28;20959;-62
2022/10/18 06:12:30;;;;;;;21.10;13.67;;;11.00;99.90;;;;;;4194405;28;20086;-63
2022/10/18 06:14:31;;;;;;;22.00;14.47;;;10.90;99.90;;;;;;4194137;28;20052;-62
2022/10/18 06:16:32;;;;;;;26.23;14.03;;;10.80;99.90;;;;;;4194203;28;20565;-62
2022/10/18 06:18:34;;;;;;;23.83;12.83;;;10.90;99.90;;;;;;4195310;28;20071;-63
2022/10/18 06:20:35;;;;;;;21.40;13.30;;;11.00;99.90;;;;;;4193713;28;20447;-63
2022/10/18 06:22:36;;;;;;;28.43;15.20;;;11.20;99.90;;;;;;4194647;28;20037;-62
2022/10/18 06:24:37;;;;;;;23.40;13.83;;;11.00;99.90;;;;;;4194176;28;20028;-62
2022/10/18 06:26:38;;;;;;;25.67;15.10;;;11.10;99.90;;;;;;4195294;28;20078;-62
2022/10/18 06:28:39;;;;;;;28.60;15.67;;;11.50;99.90;;;;;;4194099;28;20105;-63
2022/10/18 06:30:40;;;;;;;29.10;17.17;;;11.90;99.90;;;;;;4195383;28;20086;-61
2022/10/18 06:32:41;;;;;;;27.30;14.80;;;11.90;99.90;;;;;;4194252;28;20446;-62
2022/10/18 06:34:43;;;;;;;33.70;16.53;;;11.50;99.90;;;;;;4195350;28;20546;-62
2022/10/18 06:36:44;;;;;;;34.93;17.30;;;11.00;99.90;;;;;;4193115;28;20067;-63
2022/10/18 06:38:45;;;;;;;24.13;15.13;;;10.60;99.90;;;;;;4194986;28;20538;-62
2022/10/18 06:40:47;;;;;;;30.23;18.67;;;10.50;99.90;;;;;;4194248;28;20450;-62
2022/10/18 06:42:48;;;;;;;38.60;18.23;;;10.50;99.90;;;;;;4194226;28;20036;-63
2022/10/18 06:44:50;;;;;;;31.47;16.67;;;10.50;99.90;;;;;;4194426;28;20025;-62
2022/10/18 06:46:52;;;;;;;40.37;19.27;;;10.30;99.90;;;;;;4194161;28;20020;-63
2022/10/18 06:48:53;;;;;;;29.90;17.30;;;10.50;99.90;;;;;;4194717;28;20416;-62
2022/10/18 06:50:56;;;;;;;36.03;18.23;;;10.60;99.90;;;;;;4193409;28;20036;-62
2022/10/18 06:52:57;;;;;;;27.67;18.60;;;10.70;99.90;;;;;;4194202;28;20008;-62
2022/10/18 06:54:58;;;;;;;33.60;18.60;;;11.00;99.90;;;;;;4193305;28;20044;-62
2022/10/18 06:57:01;;;;;;;36.60;18.97;;;11.60;99.90;;;;;;4194508;28;20045;-62
2022/10/18 06:59:03;;;;;;;41.10;20.03;;;12.00;99.90;;;;;;4193731;28;20476;-63
2022/10/18 07:01:09;;;;;;;36.50;21.17;;;12.40;99.90;;;;;;4194823;28;20077;-62
2022/10/18 07:03:11;;;;;;;36.03;18.80;;;12.60;99.90;;;;;;4175095;28;20049;-61
2022/10/18 07:05:12;;;;;;;36.93;18.53;;;12.80;99.90;;;;;;4194692;28;20480;-63
2022/10/18 07:07:13;;;;;;;27.53;17.77;;;13.00;99.90;;;;;;4175610;28;20414;-63
2022/10/18 07:09:14;;;;;;;33.47;19.40;;;13.10;99.90;;;;;;4193891;28;20044;-63
2022/10/18 07:11:23;;;;;;;37.03;18.37;;;13.20;99.90;;;;;;4193579;28;20029;-63
2022/10/18 07:13:26;;;;;;;31.40;17.27;;;13.40;99.90;;;;;;4194256;28;20549;-62
2022/10/18 07:15:28;;;;;;;26.37;16.80;;;13.60;99.90;;;;;;4192926;28;20440;-62
2022/10/18 07:17:29;;;;;;;27.57;17.33;;;13.90;99.90;;;;;;4194055;28;20086;-61
2022/10/18 07:19:30;;;;;;;29.70;17.70;;;14.20;99.90;;;;;;4193894;28;20074;-61
2022/10/18 07:21:31;;;;;;;35.53;17.63;;;14.40;99.90;;;;;;4193873;28;20358;-60
2022/10/18 07:23:37;;;;;;;31.63;17.20;;;14.60;99.90;;;;;;4193994;28;20424;-61
2022/10/18 07:25:38;;;;;;;36.13;17.90;;;14.50;99.90;;;;;;4193564;28;20028;-61
2022/10/18 07:27:41;;;;;;;28.97;17.40;;;14.30;99.90;;;;;;4194136;28;20036;-61
2022/10/18 07:29:42;;;;;;;37.37;17.60;;;14.10;99.90;;;;;;4193188;28;20472;-62
2022/10/18 07:31:43;;;;;;;34.90;18.37;;;13.60;99.90;;;;;;4194445;28;20036;-61
2022/10/18 07:33:45;;;;;;;36.50;18.00;;;13.00;99.90;;;;;;4193503;28;20499;-61
2022/10/18 07:35:46;;;;;;;34.47;18.93;;;12.60;99.90;;;;;;4194677;28;20032;-62
2022/10/18 07:37:47;;;;;;;29.93;16.70;;;12.50;99.90;;;;;;4175351;28;20090;-62
2022/10/18 07:39:48;;;;;;;30.60;15.73;;;12.60;99.90;;;;;;4194417;28;20028;-61
2022/10/18 07:41:50;;;;;;;35.63;18.00;;;12.80;99.90;;;;;;4192770;28;20032;-61
2022/10/18 07:43:52;;;;;;;48.73;22.17;;;12.90;99.90;;;;;;4193913;28;20105;-61
2022/10/18 07:45:59;;;;;;;44.60;18.73;;;12.80;99.90;;;;;;4193272;28;20454;-60
2022/10/18 07:48:00;;;;;;;42.17;21.43;;;13.00;99.90;;;;;;4194384;28;20028;-61
2022/10/18 07:50:01;;;;;;;59.03;20.63;;;13.00;99.90;;;;;;4193320;28;20367;-61
2022/10/18 07:52:02;;;;;;;48.80;20.97;;;12.70;99.90;;;;;;4193368;28;20544;-63
2022/10/18 07:54:04;;;;;;;49.67;20.50;;;12.70;99.90;;;;;;4193659;28;20071;-61
2022/10/18 07:56:10;;;;;;;45.57;20.50;;;12.50;99.90;;;;;;4193483;28;20484;-62
2022/10/18 07:58:11;;;;;;;32.53;18.00;;;12.40;99.90;;;;;;4193784;28;20040;-62
2022/10/18 08:00:13;;;;;;;40.23;19.60;;;12.40;99.90;;;;;;4193140;28;20081;-61
2022/10/18 08:02:14;;;;;;;38.33;19.30;;;12.30;99.90;;;;;;4193396;28;20094;-60
2022/10/18 08:04:15;;;;;;;37.90;19.53;;;12.30;99.90;;;;;;4194786;28;20086;-62
2022/10/18 08:06:18;;;;;;;37.23;17.90;;;12.60;99.90;;;;;;4197476;28;20090;-62
2022/10/18 08:08:20;;;;;;;32.03;16.50;;;12.70;99.90;;;;;;4195508;28;20078;-62
2022/10/18 08:10:23;;;;;;;26.00;14.60;;;12.90;99.90;;;;;;4197506;28;20033;-61
2022/10/18 08:12:24;;;;;;;29.90;13.97;;;12.60;99.90;;;;;;4195353;28;20435;-61
2022/10/18 08:14:25;;;;;;;29.57;16.67;;;12.70;99.90;;;;;;4197334;28;20033;-61
2022/10/18 08:16:28;;;;;;;33.23;16.27;;;12.80;99.90;;;;;;4195835;28;20036;-61
2022/10/18 08:18:30;;;;;;;27.47;15.10;;;12.70;99.90;;;;;;4196925;28;20033;-62
2022/10/18 08:20:32;;;;;;;33.33;16.30;;;12.90;99.90;;;;;;4195228;28;20028;-61
2022/10/18 08:22:33;;;;;;;27.43;17.73;;;12.90;99.90;;;;;;4196587;28;20098;-62
2022/10/18 08:24:34;;;;;;;29.60;17.43;;;12.80;99.90;;;;;;4196255;28;20028;-62
2022/10/18 08:26:35;;;;;;;36.57;22.03;;;12.90;99.90;;;;;;4196755;28;20427;-62
2022/10/18 08:28:37;;;;;;;28.87;17.67;;;12.80;99.90;;;;;;4195423;28;20032;-61
2022/10/18 08:30:38;;;;;;;27.87;16.63;;;12.90;99.90;;;;;;4195770;28;20459;-63
2022/10/18 08:32:39;;;;;;;36.27;18.00;;;12.90;99.90;;;;;;4196956;28;20045;-62
2022/10/18 08:34:41;;;;;;;27.87;17.43;;;12.80;99.90;;;;;;4195851;28;20036;-60
2022/10/18 08:36:42;;;;;;;31.20;17.63;;;12.80;99.90;;;;;;4196990;28;20091;-61
2022/10/18 08:38:43;;;;;;;30.20;17.70;;;12.90;99.90;;;;;;4195675;28;20036;-60
2022/10/18 08:40:44;;;;;;;31.43;18.23;;;12.80;99.90;;;;;;4196201;28;20040;-63
2022/10/18 08:42:59;;;;;;;30.27;17.30;;;12.70;99.90;;;;;;4195261;28;20044;-62
2022/10/18 08:45:04;;;;;;;31.90;17.37;;;12.70;99.90;;;;;;4196953;28;20046;-62
2022/10/18 08:47:15;;;;;;;29.20;17.43;;;12.90;99.90;;;;;;4195766;28;20569;-61
2022/10/18 08:49:47;;;;;;;27.50;17.47;;;13.00;99.90;;;;;;4196895;28;20033;-61
2022/10/18 08:51:50;;;;;;;27.27;16.77;;;13.20;99.90;;;;;;4195666;28;20512;-62
2022/10/18 08:54:33;;;;;;;33.53;17.93;;;13.40;99.90;;;;;;4196380;28;20447;-62
2022/10/18 08:56:35;;;;;;;29.87;17.80;;;13.40;99.90;;;;;;4182687;28;20044;-64
2022/10/18 08:58:37;;;;;;;27.27;18.20;;;13.40;99.90;;;;;;4195649;28;20153;-62
2022/10/18 09:00:40;;;;;;;33.23;18.33;;;13.50;99.90;;;;;;4195504;28;20074;-62
2022/10/18 09:03:03;;;;;;;31.00;19.00;;;13.60;99.90;;;;;;4195510;28;20078;-62
2022/10/18 09:05:46;;;;;;;28.23;19.00;;;13.70;99.90;;;;;;4195422;28;20066;-62
2022/10/18 09:08:02;;;;;;;28.93;19.20;;;13.70;99.90;;;;;;4173829;28;20044;-61
2022/10/18 09:10:45;;;;;;;29.40;19.43;;;13.60;99.90;;;;;;4196454;28;20025;-62
2022/10/18 09:12:51;;;;;;;27.93;18.63;;;13.70;99.90;;;;;;4156470;28;20045;-62
2022/10/18 09:15:30;;;;;;;26.40;17.30;;;13.90;99.90;;;;;;4195853;28;20484;-62
2022/10/18 09:18:06;;;;;;;27.90;17.33;;;14.00;99.90;;;;;;4126925;28;20669;-62
2022/10/18 09:20:20;;;;;;;30.87;16.77;;;14.10;99.90;;;;;;4112450;28;20031;-62
2022/10/18 09:22:41;;;;;;;27.93;18.30;;;14.30;99.90;;;;;;4165773;28;20032;-63
2022/10/18 09:24:55;;;;;;;33.10;19.37;;;14.40;99.90;;;;;;4195712;28;20473;-62
2022/10/18 09:27:15;;;;;;;32.40;17.50;;;14.40;99.90;;;;;;4194878;28;20090;-61
2022/10/18 09:29:28;;;;;;;31.75;17.25;;;14.60;99.90;;;;;;4194670;28;20106;-58
2022/10/18 09:31:47;;;;;;;27.77;17.80;;;14.70;99.90;;;;;;4195569;28;20483;-62
2022/10/18 09:34:21;;;;;;;27.90;16.88;;;14.80;99.90;;;;;;4194989;28;20036;-62
2022/10/18 09:36:26;;;;;;;27.95;17.48;;;14.80;99.90;;;;;;4156269;28;20500;-62
2022/10/18 09:38:33;;;;;;;31.77;18.00;;;14.70;99.90;;;;;;4194976;28;20025;-62
2022/10/18 09:40:42;;;;;;;26.20;16.83;;;14.70;99.90;;;;;;4196101;28;20025;-61
2022/10/18 09:43:01;;;;;;;25.15;16.10;;;14.80;99.90;;;;;;4194640;28;20449;-62
2022/10/18 09:45:14;;;;;;;24.80;16.90;;;14.90;99.90;;;;;;4195969;28;20078;-62
2022/10/18 09:47:21;;;;;;;28.65;17.48;;;15.10;99.90;;;;;;4194183;28;20098;-63
2022/10/18 09:49:44;;;;;;;28.55;15.65;;;15.30;99.90;;;;;;4196128;28;20070;-62
2022/10/18 09:51:48;;;;;;;24.95;16.50;;;15.50;99.90;;;;;;4194183;28;20459;-62
2022/10/18 09:54:05;;;;;;;23.65;15.45;;;15.40;99.90;;;;;;4195792;28;20094;-62
2022/10/18 09:56:29;;;;;;;27.50;15.40;;;15.50;99.90;;;;;;4194541;28;20453;-60
2022/10/18 09:58:48;;;;;;;23.95;15.48;;;15.70;99.90;;;;;;4195325;28;20045;-62
2022/10/18 10:00:52;;;;;;;20.75;13.48;;;15.70;99.90;;;;;;4194687;28;20098;-62
2022/10/18 10:02:53;;;;;;;24.10;13.93;;;15.70;99.90;;;;;;4195875;28;20074;-62
2022/10/18 10:04:55;;;;;;;22.65;14.90;;;15.70;99.90;;;;;;4194247;28;20028;-63
2022/10/18 10:06:59;;;;;;;24.65;14.65;;;15.70;99.90;;;;;;4195556;28;20077;-62
2022/10/18 10:09:14;;;;;;;23.73;13.70;;;15.80;99.90;;;;;;4194220;28;20541;-61
2022/10/18 10:11:34;;;;;;;17.75;12.57;;;16.00;99.90;;;;;;4195631;28;20541;-62
2022/10/18 10:13:35;;;;;;;25.63;14.55;;;16.00;99.90;;;;;;4194206;28;20771;-61
2022/10/18 10:15:36;;;;;;;20.00;14.32;;;16.00;99.90;;;;;;4195448;28;20488;-61
2022/10/18 10:17:37;;;;;;;19.98;13.45;;;16.00;99.90;;;;;;4194508;28;20549;-60
2022/10/18 10:19:53;;;;;;;20.48;13.25;;;16.10;99.90;;;;;;4195491;28;20037;-62
2022/10/18 10:22:08;;;;;;;23.85;13.50;;;16.10;99.90;;;;;;4194446;28;20138;-62
2022/10/18 10:24:28;;;;;;;21.08;13.23;;;16.10;99.90;;;;;;4195297;28;20071;-63
2022/10/18 10:26:31;;;;;;;21.58;14.07;;;16.20;99.90;;;;;;4193453;28;20105;-63
2022/10/18 10:28:35;;;;;;;21.80;13.75;;;16.30;99.90;;;;;;4194408;28;20033;-63
2022/10/18 10:30:37;;;;;;;24.65;14.52;;;16.30;99.90;;;;;;4175965;28;20106;-63
2022/10/18 10:32:47;;;;;;;19.50;12.88;;;16.40;99.90;;;;;;4176785;28;20041;-62
2022/10/18 10:34:49;;;;;;;19.23;12.57;;;16.50;99.90;;;;;;4193198;28;20060;-63
2022/10/18 10:36:53;;;;;;;19.67;12.88;;;16.40;99.90;;;;;;4194538;28;20078;-63
2022/10/18 10:39:11;;;;;;;21.25;13.00;;;16.40;99.90;;;;;;4193959;28;20032;-62